sensor_id;sensor_type;location;lat;lon;timestamp;pressure;altitude;pressure_sealevel;temperature;humidity
12963;BME280;6546;49.882;8.666;2023-04-06T00:00:33;100331.00;;;4.68;46.82
12963;BME280;6546;49.882;8.666;2023-04-06T00:03:01;100322.59;;;4.66;46.15
12963;BME280;6546;49.882;8.666;2023-04-06T00:05:28;100320.03;;;4.66;45.91
12963;BME280;6546;49.882;8.666;2023-04-06T00:07:56;100322.50;;;4.67;45.28
12963;BME280;6546;49.882;8.666;2023-04-06T00:10:23;100316.31;;;4.59;45.70
12963;BME280;6546;49.882;8.666;2023-04-06T00:12:52;100322.16;;;4.50;46.50
12963;BME280;6546;49.882;8.666;2023-04-06T00:15:19;100317.00;;;4.50;47.86
12963;BME280;6546;49.882;8.666;2023-04-06T00:17:47;100318.91;;;4.48;48.21
12963;BME280;6546;49.882;8.666;2023-04-06T00:20:15;100319.59;;;4.50;47.14
12963;BME280;6546;49.882;8.666;2023-04-06T00:22:42;100317.38;;;4.45;46.34
12963;BME280;6546;49.882;8.666;2023-04-06T00:25:10;100314.25;;;4.42;46.39
12963;BME280;6546;49.882;8.666;2023-04-06T00:27:36;100316.09;;;4.40;46.46
12963;BME280;6546;49.882;8.666;2023-04-06T00:30:04;100317.50;;;4.44;47.41
12963;BME280;6546;49.882;8.666;2023-04-06T00:32:33;100320.97;;;4.43;48.43
12963;BME280;6546;49.882;8.666;2023-04-06T00:35:02;100318.22;;;4.46;49.17
12963;BME280;6546;49.882;8.666;2023-04-06T00:37:30;100307.03;;;4.36;49.80
12963;BME280;6546;49.882;8.666;2023-04-06T00:39:56;100308.41;;;4.40;49.71
12963;BME280;6546;49.882;8.666;2023-04-06T00:42:23;100310.97;;;4.40;49.91
12963;BME280;6546;49.882;8.666;2023-04-06T00:44:52;100302.38;;;4.30;51.13
12963;BME280;6546;49.882;8.666;2023-04-06T00:47:19;100301.19;;;4.34;49.77
12963;BME280;6546;49.882;8.666;2023-04-06T00:49:46;100292.66;;;4.33;49.00
12963;BME280;6546;49.882;8.666;2023-04-06T00:52:12;100282.41;;;4.44;46.98
12963;BME280;6546;49.882;8.666;2023-04-06T00:54:40;100291.63;;;4.24;47.07
12963;BME280;6546;49.882;8.666;2023-04-06T00:57:07;100289.53;;;4.18;47.58
12963;BME280;6546;49.882;8.666;2023-04-06T00:59:34;100284.75;;;4.14;48.02
12963;BME280;6546;49.882;8.666;2023-04-06T01:02:01;100277.66;;;4.06;48.25
12963;BME280;6546;49.882;8.666;2023-04-06T01:04:27;100283.94;;;4.02;48.44
12963;BME280;6546;49.882;8.666;2023-04-06T01:06:54;100284.16;;;4.10;48.42
12963;BME280;6546;49.882;8.666;2023-04-06T01:09:21;100279.19;;;4.20;48.90
12963;BME280;6546;49.882;8.666;2023-04-06T01:11:50;100271.25;;;4.23;49.16
12963;BME280;6546;49.882;8.666;2023-04-06T01:14:20;100277.88;;;4.26;48.90
12963;BME280;6546;49.882;8.666;2023-04-06T01:16:47;100270.78;;;4.18;48.86
12963;BME280;6546;49.882;8.666;2023-04-06T01:19:19;100275.53;;;4.11;48.99
12963;BME280;6546;49.882;8.666;2023-04-06T01:21:47;100270.31;;;4.02;49.93
12963;BME280;6546;49.882;8.666;2023-04-06T01:24:16;100268.09;;;3.97;50.41
12963;BME280;6546;49.882;8.666;2023-04-06T01:26:43;100271.00;;;3.93;50.46
12963;BME280;6546;49.882;8.666;2023-04-06T01:29:09;100265.06;;;3.92;51.16
12963;BME280;6546;49.882;8.666;2023-04-06T01:31:36;100265.97;;;3.91;50.66
12963;BME280;6546;49.882;8.666;2023-04-06T01:34:03;100263.88;;;3.85;51.62
12963;BME280;6546;49.882;8.666;2023-04-06T01:36:32;100265.63;;;3.85;51.54
12963;BME280;6546;49.882;8.666;2023-04-06T01:38:59;100261.53;;;3.82;51.85
12963;BME280;6546;49.882;8.666;2023-04-06T01:41:28;100260.41;;;3.86;51.42
12963;BME280;6546;49.882;8.666;2023-04-06T01:43:54;100261.78;;;3.79;51.52
12963;BME280;6546;49.882;8.666;2023-04-06T01:46:21;100268.53;;;3.80;51.86
12963;BME280;6546;49.882;8.666;2023-04-06T01:48:48;100268.19;;;3.74;52.15
12963;BME280;6546;49.882;8.666;2023-04-06T01:51:14;100261.09;;;3.77;52.15
12963;BME280;6546;49.882;8.666;2023-04-06T01:53:41;100277.72;;;3.72;52.45
12963;BME280;6546;49.882;8.666;2023-04-06T01:56:09;100275.25;;;3.70;52.80
12963;BME280;6546;49.882;8.666;2023-04-06T01:58:37;100267.91;;;3.65;53.42
12963;BME280;6546;49.882;8.666;2023-04-06T02:01:04;100265.94;;;3.69;53.50
12963;BME280;6546;49.882;8.666;2023-04-06T02:03:30;100271.06;;;3.69;53.75
12963;BME280;6546;49.882;8.666;2023-04-06T02:05:57;100264.19;;;3.69;53.82
12963;BME280;6546;49.882;8.666;2023-04-06T02:08:24;100253.63;;;3.74;53.94
12963;BME280;6546;49.882;8.666;2023-04-06T02:10:50;100249.88;;;3.67;53.98
12963;BME280;6546;49.882;8.666;2023-04-06T02:13:17;100259.81;;;3.72;53.87
12963;BME280;6546;49.882;8.666;2023-04-06T02:15:46;100255.59;;;3.70;53.71
12963;BME280;6546;49.882;8.666;2023-04-06T02:18:13;100259.91;;;3.70;53.11
12963;BME280;6546;49.882;8.666;2023-04-06T02:20:39;100252.91;;;3.72;51.32
12963;BME280;6546;49.882;8.666;2023-04-06T02:23:07;100256.53;;;3.58;51.83
12963;BME280;6546;49.882;8.666;2023-04-06T02:25:33;100243.59;;;3.60;50.20
12963;BME280;6546;49.882;8.666;2023-04-06T02:28:00;100247.06;;;3.48;50.22
12963;BME280;6546;49.882;8.666;2023-04-06T02:30:27;100245.41;;;3.47;50.77
12963;BME280;6546;49.882;8.666;2023-04-06T02:32:55;100246.34;;;3.46;50.73
12963;BME280;6546;49.882;8.666;2023-04-06T02:35:22;100245.78;;;3.53;50.76
12963;BME280;6546;49.882;8.666;2023-04-06T02:37:49;100235.69;;;3.52;51.16
12963;BME280;6546;49.882;8.666;2023-04-06T02:40:15;100235.69;;;3.52;50.61
12963;BME280;6546;49.882;8.666;2023-04-06T02:42:42;100240.53;;;3.44;50.80
12963;BME280;6546;49.882;8.666;2023-04-06T02:45:09;100242.38;;;3.42;51.78
12963;BME280;6546;49.882;8.666;2023-04-06T02:47:35;100239.69;;;3.43;51.76
12963;BME280;6546;49.882;8.666;2023-04-06T02:50:04;100242.50;;;3.40;52.80
12963;BME280;6546;49.882;8.666;2023-04-06T02:52:31;100238.19;;;3.41;53.13
12963;BME280;6546;49.882;8.666;2023-04-06T02:54:58;100244.59;;;3.35;53.75
12963;BME280;6546;49.882;8.666;2023-04-06T02:57:25;100243.75;;;3.35;53.95
12963;BME280;6546;49.882;8.666;2023-04-06T02:59:51;100241.31;;;3.33;54.35
12963;BME280;6546;49.882;8.666;2023-04-06T03:02:18;100246.53;;;3.32;54.58
12963;BME280;6546;49.882;8.666;2023-04-06T03:04:45;100242.13;;;3.34;54.48
12963;BME280;6546;49.882;8.666;2023-04-06T03:07:13;100243.75;;;3.35;54.53
12963;BME280;6546;49.882;8.666;2023-04-06T03:09:39;100240.94;;;3.27;54.95
12963;BME280;6546;49.882;8.666;2023-04-06T03:12:06;100246.03;;;3.27;54.88
12963;BME280;6546;49.882;8.666;2023-04-06T03:14:36;100249.06;;;3.21;55.47
12963;BME280;6546;49.882;8.666;2023-04-06T03:17:02;100237.91;;;3.22;55.07
12963;BME280;6546;49.882;8.666;2023-04-06T03:19:29;100246.19;;;3.25;54.65
12963;BME280;6546;49.882;8.666;2023-04-06T03:21:56;100244.53;;;3.24;54.58
12963;BME280;6546;49.882;8.666;2023-04-06T03:24:24;100243.03;;;3.22;54.48
12963;BME280;6546;49.882;8.666;2023-04-06T03:26:50;100253.25;;;3.22;54.28
12963;BME280;6546;49.882;8.666;2023-04-06T03:29:17;100252.94;;;3.26;54.51
12963;BME280;6546;49.882;8.666;2023-04-06T03:31:44;100254.66;;;3.26;54.64
12963;BME280;6546;49.882;8.666;2023-04-06T03:34:10;100253.63;;;3.28;54.27
12963;BME280;6546;49.882;8.666;2023-04-06T03:36:37;100258.16;;;3.25;54.50
12963;BME280;6546;49.882;8.666;2023-04-06T03:39:04;100257.91;;;3.28;54.27
12963;BME280;6546;49.882;8.666;2023-04-06T03:41:33;100268.16;;;3.28;54.54
12963;BME280;6546;49.882;8.666;2023-04-06T03:43:59;100262.06;;;3.17;54.79
12963;BME280;6546;49.882;8.666;2023-04-06T03:46:26;100257.16;;;3.14;55.36
12963;BME280;6546;49.882;8.666;2023-04-06T03:48:52;100254.84;;;3.11;54.50
12963;BME280;6546;49.882;8.666;2023-04-06T03:51:19;100250.53;;;3.12;54.81
12963;BME280;6546;49.882;8.666;2023-04-06T03:53:46;100251.13;;;3.15;54.78
12963;BME280;6546;49.882;8.666;2023-04-06T03:56:12;100249.94;;;3.08;55.14
12963;BME280;6546;49.882;8.666;2023-04-06T03:58:40;100250.41;;;3.13;55.20
12963;BME280;6546;49.882;8.666;2023-04-06T04:01:07;100261.09;;;3.07;54.42
12963;BME280;6546;49.882;8.666;2023-04-06T04:03:33;100250.06;;;3.07;53.79
12963;BME280;6546;49.882;8.666;2023-04-06T04:06:00;100253.41;;;3.07;53.45
12963;BME280;6546;49.882;8.666;2023-04-06T04:08:27;100251.31;;;3.01;53.68
12963;BME280;6546;49.882;8.666;2023-04-06T04:10:53;100251.31;;;3.01;53.63
12963;BME280;6546;49.882;8.666;2023-04-06T04:13:20;100251.53;;;2.98;53.58
12963;BME280;6546;49.882;8.666;2023-04-06T04:15:48;100258.72;;;2.93;54.19
12963;BME280;6546;49.882;8.666;2023-04-06T04:18:15;100253.38;;;2.96;54.53
12963;BME280;6546;49.882;8.666;2023-04-06T04:20:41;100271.16;;;2.98;55.09
12963;BME280;6546;49.882;8.666;2023-04-06T04:23:08;100262.34;;;3.02;55.42
12963;BME280;6546;49.882;8.666;2023-04-06T04:25:35;100274.06;;;2.93;55.83
12963;BME280;6546;49.882;8.666;2023-04-06T04:28:01;100272.19;;;2.95;55.60
12963;BME280;6546;49.882;8.666;2023-04-06T04:30:28;100284.28;;;2.93;55.64
12963;BME280;6546;49.882;8.666;2023-04-06T04:32:56;100280.31;;;2.89;56.00
12963;BME280;6546;49.882;8.666;2023-04-06T04:35:23;100279.81;;;2.84;56.50
12963;BME280;6546;49.882;8.666;2023-04-06T04:37:50;100290.97;;;2.83;56.58
12963;BME280;6546;49.882;8.666;2023-04-06T04:40:17;100282.09;;;2.76;56.85
12963;BME280;6546;49.882;8.666;2023-04-06T04:42:43;100280.44;;;2.75;57.02
12963;BME280;6546;49.882;8.666;2023-04-06T04:45:10;100278.41;;;2.80;56.83
12963;BME280;6546;49.882;8.666;2023-04-06T04:47:37;100282.91;;;2.77;56.32
12963;BME280;6546;49.882;8.666;2023-04-06T04:50:06;100279.91;;;2.83;56.22
12963;BME280;6546;49.882;8.666;2023-04-06T04:52:32;100286.69;;;2.84;56.48
12963;BME280;6546;49.882;8.666;2023-04-06T04:54:59;100284.22;;;2.82;56.52
12963;BME280;6546;49.882;8.666;2023-04-06T04:57:26;100288.63;;;2.80;56.06
12963;BME280;6546;49.882;8.666;2023-04-06T04:59:52;100289.84;;;2.87;55.67
12963;BME280;6546;49.882;8.666;2023-04-06T05:02:19;100289.94;;;2.86;55.48
12963;BME280;6546;49.882;8.666;2023-04-06T05:04:45;100296.91;;;2.84;55.27
12963;BME280;6546;49.882;8.666;2023-04-06T05:07:13;100294.00;;;2.88;54.93
12963;BME280;6546;49.882;8.666;2023-04-06T05:09:43;100290.44;;;2.91;54.77
12963;BME280;6546;49.882;8.666;2023-04-06T05:12:10;100288.19;;;2.86;55.08
12963;BME280;6546;49.882;8.666;2023-04-06T05:14:37;100289.22;;;2.84;55.53
12963;BME280;6546;49.882;8.666;2023-04-06T05:17:03;100291.44;;;2.88;54.98
12963;BME280;6546;49.882;8.666;2023-04-06T05:19:30;100293.78;;;2.91;54.74
12963;BME280;6546;49.882;8.666;2023-04-06T05:21:57;100293.09;;;2.89;55.26
12963;BME280;6546;49.882;8.666;2023-04-06T05:24:25;100298.28;;;2.88;55.73
12963;BME280;6546;49.882;8.666;2023-04-06T05:26:52;100294.72;;;2.90;56.18
12963;BME280;6546;49.882;8.666;2023-04-06T05:29:19;100282.44;;;2.95;56.13
12963;BME280;6546;49.882;8.666;2023-04-06T05:31:46;100294.09;;;2.99;56.35
12963;BME280;6546;49.882;8.666;2023-04-06T05:34:13;100297.34;;;3.01;56.25
12963;BME280;6546;49.882;8.666;2023-04-06T05:36:39;100296.09;;;3.07;55.64
12963;BME280;6546;49.882;8.666;2023-04-06T05:39:06;100304.09;;;3.02;55.81
12963;BME280;6546;49.882;8.666;2023-04-06T05:41:34;100311.53;;;3.05;56.21
12963;BME280;6546;49.882;8.666;2023-04-06T05:44:01;100307.63;;;3.12;56.70
12963;BME280;6546;49.882;8.666;2023-04-06T05:46:28;100311.81;;;3.13;57.43
12963;BME280;6546;49.882;8.666;2023-04-06T05:48:54;100315.78;;;3.17;56.97
12963;BME280;6546;49.882;8.666;2023-04-06T05:51:21;100298.47;;;3.21;56.75
12963;BME280;6546;49.882;8.666;2023-04-06T05:53:48;100308.88;;;3.31;56.59
12963;BME280;6546;49.882;8.666;2023-04-06T05:56:15;100306.81;;;3.36;56.61
12963;BME280;6546;49.882;8.666;2023-04-06T05:58:43;100306.38;;;3.42;56.74
12963;BME280;6546;49.882;8.666;2023-04-06T06:01:09;100307.28;;;3.41;56.87
12963;BME280;6546;49.882;8.666;2023-04-06T06:03:36;100307.34;;;3.52;56.57
12963;BME280;6546;49.882;8.666;2023-04-06T06:06:04;100307.72;;;3.58;56.36
12963;BME280;6546;49.882;8.666;2023-04-06T06:08:30;100304.38;;;3.80;56.24
12963;BME280;6546;49.882;8.666;2023-04-06T06:10:57;100302.91;;;4.00;55.37
12963;BME280;6546;49.882;8.666;2023-04-06T06:13:24;100309.44;;;4.04;54.54
12963;BME280;6546;49.882;8.666;2023-04-06T06:15:52;100304.78;;;4.09;55.43
12963;BME280;6546;49.882;8.666;2023-04-06T06:18:19;100306.28;;;4.11;55.76
12963;BME280;6546;49.882;8.666;2023-04-06T06:20:45;100302.34;;;4.18;55.64
12963;BME280;6546;49.882;8.666;2023-04-06T06:23:12;100300.59;;;4.30;55.62
12963;BME280;6546;49.882;8.666;2023-04-06T06:25:39;100296.28;;;4.42;55.28
12963;BME280;6546;49.882;8.666;2023-04-06T06:28:05;100294.41;;;4.55;55.38
12963;BME280;6546;49.882;8.666;2023-04-06T06:30:32;100301.97;;;4.67;55.04
12963;BME280;6546;49.882;8.666;2023-04-06T06:33:00;100309.06;;;4.86;54.94
12963;BME280;6546;49.882;8.666;2023-04-06T06:35:27;100301.53;;;5.16;54.67
12963;BME280;6546;49.882;8.666;2023-04-06T06:37:54;100295.31;;;5.51;53.86
12963;BME280;6546;49.882;8.666;2023-04-06T06:40:20;100303.03;;;5.92;52.76
12963;BME280;6546;49.882;8.666;2023-04-06T06:42:49;100299.63;;;6.33;51.60
12963;BME280;6546;49.882;8.666;2023-04-06T06:45:16;100301.22;;;6.74;50.33
12963;BME280;6546;49.882;8.666;2023-04-06T06:47:43;100299.09;;;7.08;47.47
12963;BME280;6546;49.882;8.666;2023-04-06T06:50:11;100301.16;;;7.14;45.54
12963;BME280;6546;49.882;8.666;2023-04-06T06:52:37;100306.25;;;6.85;46.02
12963;BME280;6546;49.882;8.666;2023-04-06T06:55:05;100298.81;;;7.01;45.58
12963;BME280;6546;49.882;8.666;2023-04-06T06:57:32;100303.75;;;7.14;45.41
12963;BME280;6546;49.882;8.666;2023-04-06T06:59:59;100301.66;;;6.98;45.52
12963;BME280;6546;49.882;8.666;2023-04-06T07:02:26;100300.44;;;6.93;45.95
12963;BME280;6546;49.882;8.666;2023-04-06T07:04:52;100307.06;;;6.85;46.33
12963;BME280;6546;49.882;8.666;2023-04-06T07:07:20;100303.66;;;6.75;46.49
12963;BME280;6546;49.882;8.666;2023-04-06T07:09:47;100307.03;;;6.66;46.75
12963;BME280;6546;49.882;8.666;2023-04-06T07:12:14;100304.59;;;6.65;46.93
12963;BME280;6546;49.882;8.666;2023-04-06T07:14:41;100306.19;;;6.66;47.02
12963;BME280;6546;49.882;8.666;2023-04-06T07:17:08;100302.16;;;6.73;47.29
12963;BME280;6546;49.882;8.666;2023-04-06T07:19:35;100303.53;;;6.77;47.71
12963;BME280;6546;49.882;8.666;2023-04-06T07:22:02;100301.63;;;6.79;47.09
12963;BME280;6546;49.882;8.666;2023-04-06T07:24:30;100308.41;;;6.80;47.21
12963;BME280;6546;49.882;8.666;2023-04-06T07:26:58;100305.31;;;6.86;47.66
12963;BME280;6546;49.882;8.666;2023-04-06T07:29:25;100311.00;;;6.90;47.69
12963;BME280;6546;49.882;8.666;2023-04-06T07:31:52;100301.16;;;6.95;47.77
12963;BME280;6546;49.882;8.666;2023-04-06T07:34:19;100309.00;;;7.03;46.82
12963;BME280;6546;49.882;8.666;2023-04-06T07:36:46;100308.72;;;7.06;46.88
12963;BME280;6546;49.882;8.666;2023-04-06T07:39:12;100311.47;;;7.14;46.88
12963;BME280;6546;49.882;8.666;2023-04-06T07:41:41;100306.44;;;7.22;47.04
12963;BME280;6546;49.882;8.666;2023-04-06T07:44:07;100310.94;;;7.29;47.08
12963;BME280;6546;49.882;8.666;2023-04-06T07:46:34;100301.97;;;7.33;47.60
12963;BME280;6546;49.882;8.666;2023-04-06T07:49:01;100307.66;;;7.37;47.07
12963;BME280;6546;49.882;8.666;2023-04-06T07:51:28;100304.41;;;7.45;46.85
12963;BME280;6546;49.882;8.666;2023-04-06T07:53:55;100305.78;;;7.49;47.85
12963;BME280;6546;49.882;8.666;2023-04-06T07:56:21;100300.75;;;7.57;47.86
12963;BME280;6546;49.882;8.666;2023-04-06T07:58:49;100306.03;;;7.65;47.98
12963;BME280;6546;49.882;8.666;2023-04-06T08:01:16;100309.69;;;7.72;46.77
12963;BME280;6546;49.882;8.666;2023-04-06T08:03:42;100302.91;;;7.80;46.14
12963;BME280;6546;49.882;8.666;2023-04-06T08:06:09;100305.72;;;7.87;45.66
12963;BME280;6546;49.882;8.666;2023-04-06T08:08:36;100306.41;;;7.89;45.45
12963;BME280;6546;49.882;8.666;2023-04-06T08:11:02;100312.78;;;7.95;45.25
12963;BME280;6546;49.882;8.666;2023-04-06T08:13:29;100301.09;;;8.00;45.49
12963;BME280;6546;49.882;8.666;2023-04-06T08:15:58;100306.91;;;8.02;46.05
12963;BME280;6546;49.882;8.666;2023-04-06T08:18:25;100302.44;;;8.04;45.18
12963;BME280;6546;49.882;8.666;2023-04-06T08:20:52;100305.69;;;8.06;45.31
12963;BME280;6546;49.882;8.666;2023-04-06T08:23:18;100302.41;;;8.14;46.23
12963;BME280;6546;49.882;8.666;2023-04-06T08:25:45;100305.38;;;8.19;45.47
12963;BME280;6546;49.882;8.666;2023-04-06T08:28:12;100301.41;;;8.24;45.15
12963;BME280;6546;49.882;8.666;2023-04-06T08:30:39;100308.59;;;8.30;45.02
12963;BME280;6546;49.882;8.666;2023-04-06T08:33:07;100307.09;;;8.37;45.75
12963;BME280;6546;49.882;8.666;2023-04-06T08:35:34;100303.00;;;8.44;45.45
12963;BME280;6546;49.882;8.666;2023-04-06T08:38:04;100315.72;;;8.56;44.85
12963;BME280;6546;49.882;8.666;2023-04-06T08:40:36;100303.34;;;8.59;44.05
12963;BME280;6546;49.882;8.666;2023-04-06T08:43:05;100303.19;;;8.61;44.56
12963;BME280;6546;49.882;8.666;2023-04-06T08:45:35;100298.44;;;8.66;44.25
12963;BME280;6546;49.882;8.666;2023-04-06T08:48:02;100298.44;;;8.66;44.61
12963;BME280;6546;49.882;8.666;2023-04-06T08:50:32;100297.28;;;8.78;44.02
12963;BME280;6546;49.882;8.666;2023-04-06T08:52:59;100293.56;;;8.80;43.74
12963;BME280;6546;49.882;8.666;2023-04-06T08:55:27;100294.75;;;8.86;43.49
12963;BME280;6546;49.882;8.666;2023-04-06T08:57:54;100287.41;;;8.91;42.96
12963;BME280;6546;49.882;8.666;2023-04-06T09:00:22;100292.28;;;8.94;42.43
12963;BME280;6546;49.882;8.666;2023-04-06T09:02:49;100293.69;;;9.06;41.48
12963;BME280;6546;49.882;8.666;2023-04-06T09:05:18;100288.31;;;9.17;43.12
12963;BME280;6546;49.882;8.666;2023-04-06T09:07:46;100286.09;;;9.22;42.46
12963;BME280;6546;49.882;8.666;2023-04-06T09:10:13;100290.88;;;9.35;42.28
12963;BME280;6546;49.882;8.666;2023-04-06T09:12:42;100294.16;;;9.37;41.78
12963;BME280;6546;49.882;8.666;2023-04-06T09:15:18;100293.38;;;9.44;41.27
12963;BME280;6546;49.882;8.666;2023-04-06T09:17:46;100294.41;;;9.52;42.22
12963;BME280;6546;49.882;8.666;2023-04-06T09:20:13;100282.03;;;9.63;39.94
12963;BME280;6546;49.882;8.666;2023-04-06T09:22:40;100287.50;;;9.78;41.14
12963;BME280;6546;49.882;8.666;2023-04-06T09:25:17;100283.34;;;9.85;41.16
12963;BME280;6546;49.882;8.666;2023-04-06T09:27:45;100288.41;;;9.94;40.95
12963;BME280;6546;49.882;8.666;2023-04-06T09:30:14;100290.22;;;10.02;39.25
12963;BME280;6546;49.882;8.666;2023-04-06T09:32:46;100279.25;;;10.08;40.64
12963;BME280;6546;49.882;8.666;2023-04-06T09:35:13;100284.06;;;10.21;39.73
12963;BME280;6546;49.882;8.666;2023-04-06T09:37:40;100278.09;;;10.28;40.30
12963;BME280;6546;49.882;8.666;2023-04-06T09:40:11;100275.22;;;10.31;40.45
12963;BME280;6546;49.882;8.666;2023-04-06T09:42:42;100284.94;;;10.37;39.26
12963;BME280;6546;49.882;8.666;2023-04-06T09:45:09;100278.84;;;10.46;40.26
12963;BME280;6546;49.882;8.666;2023-04-06T09:47:37;100279.03;;;10.53;40.58
12963;BME280;6546;49.882;8.666;2023-04-06T09:50:07;100272.91;;;10.62;39.64
12963;BME280;6546;49.882;8.666;2023-04-06T09:52:40;100281.81;;;10.68;39.74
12963;BME280;6546;49.882;8.666;2023-04-06T09:55:09;100280.56;;;10.72;38.97
12963;BME280;6546;49.882;8.666;2023-04-06T09:57:41;100280.88;;;10.77;38.62
12963;BME280;6546;49.882;8.666;2023-04-06T10:00:14;100278.31;;;10.85;38.99
12963;BME280;6546;49.882;8.666;2023-04-06T10:02:50;100270.88;;;10.90;38.59
12963;BME280;6546;49.882;8.666;2023-04-06T10:05:25;100269.91;;;10.91;39.43
12963;BME280;6546;49.882;8.666;2023-04-06T10:07:57;100273.81;;;10.95;38.96
12963;BME280;6546;49.882;8.666;2023-04-06T10:10:28;100276.41;;;11.03;39.61
12963;BME280;6546;49.882;8.666;2023-04-06T10:12:55;100276.41;;;11.03;39.13
12963;BME280;6546;49.882;8.666;2023-04-06T10:15:22;100281.63;;;11.11;39.11
12963;BME280;6546;49.882;8.666;2023-04-06T10:17:51;100265.88;;;11.13;38.36
12963;BME280;6546;49.882;8.666;2023-04-06T10:20:22;100268.50;;;11.21;36.34
12963;BME280;6546;49.882;8.666;2023-04-06T10:22:55;100261.50;;;11.21;37.71
12963;BME280;6546;49.882;8.666;2023-04-06T10:25:31;100263.63;;;11.26;38.52
12963;BME280;6546;49.882;8.666;2023-04-06T10:28:01;100266.06;;;11.35;35.72
12963;BME280;6546;49.882;8.666;2023-04-06T10:30:32;100260.56;;;11.38;37.62
12963;BME280;6546;49.882;8.666;2023-04-06T10:32:59;100264.75;;;11.47;35.71
12963;BME280;6546;49.882;8.666;2023-04-06T10:35:36;100259.91;;;11.52;35.59
12963;BME280;6546;49.882;8.666;2023-04-06T10:38:04;100260.88;;;11.51;35.33
12963;BME280;6546;49.882;8.666;2023-04-06T10:40:36;100258.91;;;11.53;36.39
12963;BME280;6546;49.882;8.666;2023-04-06T10:43:10;100255.50;;;11.61;35.49
12963;BME280;6546;49.882;8.666;2023-04-06T10:45:38;100250.19;;;11.71;36.34
12963;BME280;6546;49.882;8.666;2023-04-06T10:48:15;100254.72;;;11.77;36.42
12963;BME280;6546;49.882;8.666;2023-04-06T10:50:44;100254.03;;;11.83;37.48
12963;BME280;6546;49.882;8.666;2023-04-06T10:53:11;100242.38;;;11.87;36.87
12963;BME280;6546;49.882;8.666;2023-04-06T10:55:40;100251.78;;;11.88;36.96
12963;BME280;6546;49.882;8.666;2023-04-06T10:58:07;100247.56;;;11.87;36.92
12963;BME280;6546;49.882;8.666;2023-04-06T11:00:34;100240.25;;;11.90;35.81
12963;BME280;6546;49.882;8.666;2023-04-06T11:03:01;100235.34;;;12.03;36.31
12963;BME280;6546;49.882;8.666;2023-04-06T11:05:28;100240.06;;;12.08;37.28
12963;BME280;6546;49.882;8.666;2023-04-06T11:07:55;100232.84;;;12.18;36.68
12963;BME280;6546;49.882;8.666;2023-04-06T11:10:22;100225.72;;;12.20;35.07
12963;BME280;6546;49.882;8.666;2023-04-06T11:12:53;100222.47;;;12.18;34.48
12963;BME280;6546;49.882;8.666;2023-04-06T11:15:20;100217.13;;;12.20;37.63
12963;BME280;6546;49.882;8.666;2023-04-06T11:17:47;100220.53;;;12.20;37.30
12963;BME280;6546;49.882;8.666;2023-04-06T11:20:15;100220.19;;;12.23;35.30
12963;BME280;6546;49.882;8.666;2023-04-06T11:22:50;100215.00;;;12.23;35.02
12963;BME280;6546;49.882;8.666;2023-04-06T11:25:17;100216.28;;;12.27;34.62
12963;BME280;6546;49.882;8.666;2023-04-06T11:27:46;100220.16;;;12.31;34.35
12963;BME280;6546;49.882;8.666;2023-04-06T11:30:14;100221.28;;;12.37;35.16
12963;BME280;6546;49.882;8.666;2023-04-06T11:32:42;100210.72;;;12.38;33.15
12963;BME280;6546;49.882;8.666;2023-04-06T11:35:11;100207.78;;;12.41;34.25
12963;BME280;6546;49.882;8.666;2023-04-06T11:37:39;100202.22;;;12.44;32.79
12963;BME280;6546;49.882;8.666;2023-04-06T11:40:09;100200.63;;;12.43;32.93
12963;BME280;6546;49.882;8.666;2023-04-06T11:42:36;100200.75;;;12.50;32.34
12963;BME280;6546;49.882;8.666;2023-04-06T11:45:03;100192.75;;;12.59;35.36
12963;BME280;6546;49.882;8.666;2023-04-06T11:47:33;100188.66;;;12.65;34.08
12963;BME280;6546;49.882;8.666;2023-04-06T11:50:06;100194.59;;;12.74;32.76
12963;BME280;6546;49.882;8.666;2023-04-06T11:52:33;100188.88;;;12.78;33.77
12963;BME280;6546;49.882;8.666;2023-04-06T11:55:10;100182.41;;;12.74;33.63
12963;BME280;6546;49.882;8.666;2023-04-06T11:57:38;100180.22;;;12.63;31.10
12963;BME280;6546;49.882;8.666;2023-04-06T12:00:06;100177.19;;;12.51;31.23
12963;BME280;6546;49.882;8.666;2023-04-06T12:02:35;100180.63;;;12.52;32.90
12963;BME280;6546;49.882;8.666;2023-04-06T12:05:06;100190.84;;;12.53;32.53
12963;BME280;6546;49.882;8.666;2023-04-06T12:07:33;100178.47;;;12.55;32.73
12963;BME280;6546;49.882;8.666;2023-04-06T12:10:02;100181.09;;;12.55;31.94
12963;BME280;6546;49.882;8.666;2023-04-06T12:12:29;100175.53;;;12.58;32.93
12963;BME280;6546;49.882;8.666;2023-04-06T12:14:56;100178.25;;;12.65;32.75
12963;BME280;6546;49.882;8.666;2023-04-06T12:17:23;100176.59;;;12.72;34.05
12963;BME280;6546;49.882;8.666;2023-04-06T12:19:51;100164.22;;;12.74;31.36
12963;BME280;6546;49.882;8.666;2023-04-06T12:22:18;100169.53;;;12.81;31.43
12963;BME280;6546;49.882;8.666;2023-04-06T12:24:45;100166.59;;;12.84;30.55
12963;BME280;6546;49.882;8.666;2023-04-06T12:27:12;100168.84;;;12.87;32.44
12963;BME280;6546;49.882;8.666;2023-04-06T12:29:38;100168.13;;;12.93;33.01
12963;BME280;6546;49.882;8.666;2023-04-06T12:32:05;100166.47;;;13.00;32.61
12963;BME280;6546;49.882;8.666;2023-04-06T12:34:32;100150.06;;;12.99;32.81
12963;BME280;6546;49.882;8.666;2023-04-06T12:37:00;100155.16;;;12.93;31.45
12963;BME280;6546;49.882;8.666;2023-04-06T12:39:27;100152.75;;;12.91;32.73
12963;BME280;6546;49.882;8.666;2023-04-06T12:41:54;100150.94;;;12.92;32.75
12963;BME280;6546;49.882;8.666;2023-04-06T12:44:21;100154.78;;;12.96;30.21
12963;BME280;6546;49.882;8.666;2023-04-06T12:46:48;100155.78;;;12.95;29.93
12963;BME280;6546;49.882;8.666;2023-04-06T12:49:15;100149.94;;;12.93;30.25
12963;BME280;6546;49.882;8.666;2023-04-06T12:51:44;100147.06;;;12.88;32.15
12963;BME280;6546;49.882;8.666;2023-04-06T12:54:12;100136.22;;;12.84;32.00
12963;BME280;6546;49.882;8.666;2023-04-06T12:56:39;100147.78;;;12.82;32.59
12963;BME280;6546;49.882;8.666;2023-04-06T12:59:06;100152.63;;;12.85;31.42
12963;BME280;6546;49.882;8.666;2023-04-06T13:01:33;100151.00;;;12.84;31.73
12963;BME280;6546;49.882;8.666;2023-04-06T13:03:59;100149.38;;;12.83;30.67
12963;BME280;6546;49.882;8.666;2023-04-06T13:06:26;100146.16;;;12.81;30.26
12963;BME280;6546;49.882;8.666;2023-04-06T13:08:54;100139.31;;;12.80;30.03